Time;durP1;ratioP1;P1;durP2;ratioP2;P2;SDS_P1;SDS_P2;PMS_P1;PMS_P2;Temp;Humidity;BMP_temperature;BMP_pressure;BME280_temperature;BME280_humidity;BME280_pressure;Samples;Min_cycle;Max_cycle;Signal;HPM_P1;HPM_P2
2022/09/09 00:00:45;;;;;;;9.00;4.18;;;;;13.50;96092.00;;;;8426648;28;20214;-66
2022/09/09 00:05:01;;;;;;;11.75;4.20;;;;;13.50;96092.00;;;;8427991;28;20226;-66
2022/09/09 00:09:11;;;;;;;10.10;5.25;;;;;13.50;96096.00;;;;8427889;28;20568;-66
2022/09/09 00:13:20;;;;;;;11.95;5.53;;;;;13.60;96092.00;;;;8427600;28;20647;-66
2022/09/09 00:17:36;;;;;;;7.93;4.43;;;;;13.50;96092.00;;;;8427240;28;20651;-66
2022/09/09 00:21:44;;;;;;;7.13;4.30;;;;;13.50;96092.00;;;;8432275;28;20686;-67
2022/09/09 00:25:53;;;;;;;6.55;4.10;;;;;13.50;96078.00;;;;8434364;28;20242;-65
2022/09/09 00:29:59;;;;;;;24.08;8.55;;;;;13.40;96069.00;;;;8434380;28;26190;-65
2022/09/09 00:34:33;;;;;;;15.50;6.45;;;;;13.40;96073.00;;;;8434371;28;20229;-65
2022/09/09 00:38:38;;;;;;;22.00;9.10;;;;;13.40;96076.00;;;;8433007;28;20291;-64
2022/09/09 00:42:43;;;;;;;42.35;11.60;;;;;13.40;96081.00;;;;8433497;28;20225;-67
2022/09/09 00:46:57;;;;;;;16.17;8.48;;;;;13.50;96071.00;;;;8433134;28;20223;-65
2022/09/09 00:51:11;;;;;;;16.65;6.97;;;;;13.40;96078.00;;;;8433663;28;20279;-65
2022/09/09 00:55:42;;;;;;;14.35;7.13;;;;;13.50;96086.00;;;;8432875;28;20328;-65
2022/09/09 00:59:50;;;;;;;15.27;6.88;;;;;13.70;96084.00;;;;8433619;28;20228;-65
2022/09/09 01:03:55;;;;;;;35.88;12.30;;;;;13.90;96095.00;;;;8432823;28;20229;-65
2022/09/09 01:08:03;;;;;;;51.75;11.95;;;;;14.20;96101.00;;;;8433534;28;20231;-65
2022/09/09 01:12:40;;;;;;;45.42;8.98;;;;;14.30;96092.00;;;;8432779;28;20245;-65
2022/09/09 01:16:45;;;;;;;493.50;26.45;;;;;14.40;96090.00;;;;8432728;28;20556;-66
2022/09/09 01:20:56;;;;;;;608.30;38.67;;;;;14.50;96082.00;;;;8432032;28;20267;-65
2022/09/09 01:25:29;;;;;;;477.73;34.35;;;;;14.80;96092.00;;;;8432549;28;20254;-65
2022/09/09 01:29:34;;;;;;;267.33;26.65;;;;;15.00;96079.00;;;;8431463;28;20222;-65
2022/09/09 01:33:37;;;;;;;741.70;46.42;;;;;15.20;96086.00;;;;8432294;28;20219;-65
2022/09/09 01:37:40;;;;;;;122.10;17.05;;;;;15.30;96079.00;;;;8431701;28;20222;-65
2022/09/09 01:42:09;;;;;;;174.95;17.00;;;;;15.30;96084.00;;;;8431787;28;20652;-65
2022/09/09 01:46:14;;;;;;;110.05;13.85;;;;;15.30;96077.00;;;;8431245;28;20223;-65
2022/09/09 01:50:18;;;;;;;110.57;12.85;;;;;15.30;96082.00;;;;8431426;28;20351;-65
2022/09/09 01:54:23;;;;;;;245.25;17.77;;;;;15.20;96086.00;;;;8432041;28;20222;-65
2022/09/09 01:58:34;;;;;;;302.40;19.80;;;;;15.10;96082.00;;;;8431698;28;20219;-65
2022/09/09 02:02:48;;;;;;;95.97;11.43;;;;;15.20;96074.00;;;;8430807;28;20230;-65
2022/09/09 02:06:56;;;;;;;74.65;11.70;;;;;15.20;96074.00;;;;8431053;28;20231;-65
2022/09/09 02:11:02;;;;;;;110.88;14.43;;;;;15.10;96075.00;;;;8431603;28;20219;-65
2022/09/09 02:15:12;;;;;;;142.13;13.38;;;;;15.10;96073.00;;;;8430892;28;20249;-65
2022/09/09 02:19:23;;;;;;;78.95;8.35;;;;;15.00;96076.00;;;;8430391;28;20219;-65
2022/09/09 02:23:27;;;;;;;128.88;11.55;;;;;14.80;96076.00;;;;8431245;28;20219;-65
2022/09/09 02:27:30;;;;;;;121.43;10.65;;;;;14.60;96081.00;;;;8430422;28;20227;-65
2022/09/09 02:31:35;;;;;;;42.63;7.53;;;;;14.50;96076.00;;;;8430950;28;20218;-65
2022/09/09 02:35:42;;;;;;;50.33;7.03;;;;;14.50;96071.00;;;;8430114;28;20222;-64
2022/09/09 02:40:14;;;;;;;62.90;7.88;;;;;14.50;96071.00;;;;8430744;28;20222;-64
2022/09/09 02:44:18;;;;;;;129.45;12.32;;;;;14.40;96065.00;;;;8428961;28;20226;-64
2022/09/09 02:48:29;;;;;;;39.00;8.52;;;;;14.40;96060.00;;;;8430400;28;20722;-65
2022/09/09 02:52:43;;;;;;;114.18;11.32;;;;;14.50;96062.00;;;;8429431;28;20222;-64
2022/09/09 02:56:50;;;;;;;86.40;8.85;;;;;14.50;96062.00;;;;8430036;28;20671;-65
2022/09/09 03:00:54;;;;;;;202.93;16.20;;;;;14.50;96066.00;;;;8429525;28;20243;-65
2022/09/09 03:05:09;;;;;;;254.35;16.30;;;;;14.50;96058.00;;;;8429488;28;20278;-65
2022/09/09 03:09:13;;;;;;;132.23;14.23;;;;;14.60;96058.00;;;;8429484;28;20227;-64
2022/09/09 03:13:19;;;;;;;139.93;15.32;;;;;14.60;96053.00;;;;8429277;28;20215;-65
2022/09/09 03:17:22;;;;;;;188.20;15.55;;;;;14.70;96054.00;;;;8429940;28;20538;-65
2022/09/09 03:21:57;;;;;;;116.43;14.10;;;;;14.70;96056.00;;;;8429868;28;20211;-65
2022/09/09 03:26:02;;;;;;;156.15;13.65;;;;;14.70;96062.00;;;;8428795;28;20249;-64
2022/09/09 03:30:06;;;;;;;117.05;13.18;;;;;14.70;96061.00;;;;8428728;28;20226;-64
2022/09/09 03:34:09;;;;;;;144.77;14.95;;;;;14.80;96074.00;;;;8429302;28;20211;-64
2022/09/09 03:38:12;;;;;;;281.33;23.00;;;;;14.90;96076.00;;;;8428468;28;20699;-65
2022/09/09 03:42:19;;;;;;;138.48;14.70;;;;;14.90;96069.00;;;;8428668;28;20215;-65
2022/09/09 03:46:24;;;;;;;295.48;23.15;;;;;14.90;96064.00;;;;8428364;28;20218;-65
2022/09/09 03:51:00;;;;;;;283.80;22.90;;;;;14.90;96069.00;;;;8428516;28;20273;-65
2022/09/09 03:55:04;;;;;;;404.88;26.52;;;;;15.00;96069.00;;;;8426994;28;20215;-64
2022/09/09 03:59:09;;;;;;;158.38;16.92;;;;;15.10;96066.00;;;;8428497;28;20223;-64
2022/09/09 04:03:13;;;;;;;343.35;22.73;;;;;15.20;96073.00;;;;8427459;28;20572;-65
2022/09/09 04:07:16;;;;;;;319.17;21.90;;;;;15.20;96074.00;;;;8427511;28;20215;-65
2022/09/09 04:11:19;;;;;;;776.80;67.95;;;;;15.10;96078.00;;;;8427546;28;20479;-65
2022/09/09 04:15:24;;;;;;;210.32;17.75;;;;;15.20;96075.00;;;;8428291;28;20219;-65
2022/09/09 04:19:58;;;;;;;138.02;12.95;;;;;15.20;96071.00;;;;8427605;28;20331;-65
2022/09/09 04:24:01;;;;;;;233.70;18.95;;;;;15.20;96078.00;;;;8427264;28;20229;-65
2022/09/09 04:28:04;;;;;;;95.63;11.10;;;;;15.20;96077.00;;;;8426963;28;20605;-65
2022/09/09 04:32:08;;;;;;;254.05;18.05;;;;;15.20;96077.00;;;;8427545;28;20215;-65
2022/09/09 04:36:42;;;;;;;250.95;17.00;;;;;15.10;96073.00;;;;8427111;28;20227;-65
2022/09/09 04:40:47;;;;;;;120.03;12.25;;;;;15.00;96068.00;;;;8427662;28;20219;-65
2022/09/09 04:44:50;;;;;;;70.95;10.15;;;;;14.90;96071.00;;;;8426991;28;20279;-65
2022/09/09 04:48:54;;;;;;;112.00;14.07;;;;;14.90;96056.00;;;;8427100;28;20238;-65
2022/09/09 04:53:00;;;;;;;205.27;17.73;;;;;14.90;96057.00;;;;8427404;28;20683;-65
2022/09/09 04:57:04;;;;;;;187.68;15.02;;;;;14.90;96056.00;;;;8426490;28;20238;-64
2022/09/09 05:01:08;;;;;;;92.07;13.25;;;;;15.00;96046.00;;;;8426754;28;20273;-65
2022/09/09 05:05:47;;;;;;;111.75;13.07;;;;;15.10;96046.00;;;;8428004;28;20207;-64
2022/09/09 05:09:50;;;;;;;225.70;17.20;;;;;15.10;96052.00;;;;8433035;28;20237;-65
2022/09/09 05:13:53;;;;;;;237.13;19.10;;;;;15.10;96055.00;;;;8432636;28;20223;-65
2022/09/09 05:17:58;;;;;;;185.68;17.88;;;;;15.20;96054.00;;;;8433368;28;20215;-65
2022/09/09 05:22:04;;;;;;;75.68;12.77;;;;;15.40;96058.00;;;;8432608;28;20223;-65
2022/09/09 05:26:10;;;;;;;87.53;13.68;;;;;15.60;96057.00;;;;8433205;28;20223;-65
2022/09/09 05:30:19;;;;;;;208.77;17.45;;;;;15.80;96062.00;;;;8432607;28;20223;-65
2022/09/09 05:34:22;;;;;;;299.80;20.90;;;;;15.80;96076.00;;;;8432800;28;20660;-65
2022/09/09 05:38:27;;;;;;;285.75;21.05;;;;;15.70;96079.00;;;;8431987;28;20292;-65
2022/09/09 05:42:32;;;;;;;102.88;15.60;;;;;15.70;96078.00;;;;8432603;28;20273;-65
2022/09/09 05:46:35;;;;;;;258.23;18.50;;;;;15.70;96094.00;;;;8431947;28;20541;-65
2022/09/09 05:51:10;;;;;;;156.23;16.60;;;;;15.70;96093.00;;;;8432473;28;20227;-65
2022/09/09 05:55:15;;;;;;;159.30;17.75;;;;;15.70;96100.00;;;;8431725;28;20537;-65
2022/09/09 05:59:18;;;;;;;151.35;17.00;;;;;15.80;96102.00;;;;8432099;28;20223;-65
2022/09/09 06:08:39;;;;;;;100.38;17.38;;;;;15.80;96094.00;;;;8431319;28;20229;-65
2022/09/09 06:12:43;;;;;;;59.40;18.48;;;;;16.00;96106.00;;;;8430996;28;20234;-64
2022/09/09 06:16:46;;;;;;;66.65;18.65;;;;;16.20;96101.00;;;;8430477;28;20257;-65
2022/09/09 06:21:24;;;;;;;98.57;20.63;;;;;16.30;96104.00;;;;8430317;28;20230;-65
2022/09/09 06:25:27;;;;;;;75.60;19.92;;;;;16.40;96102.00;;;;8430420;28;20211;-65
2022/09/09 06:29:31;;;;;;;77.68;20.33;;;;;16.60;96093.00;;;;8430526;28;20656;-65
2022/09/09 06:34:06;;;;;;;107.15;25.15;;;;;17.00;96102.00;;;;8430845;28;20219;-65
2022/09/09 06:38:09;;;;;;;62.08;20.30;;;;;17.50;96103.00;;;;8430291;28;20227;-65
2022/09/09 06:42:12;;;;;;;33.92;16.70;;;;;17.70;96106.00;;;;8431035;28;20218;-65
2022/09/09 06:46:19;;;;;;;36.75;15.82;;;;;18.00;96117.00;;;;8430201;28;20218;-65
2022/09/09 06:50:54;;;;;;;28.50;14.63;;;;;18.20;96109.00;;;;8429872;28;20219;-65
2022/09/09 06:54:58;;;;;;;26.33;13.95;;;;;18.60;96115.00;;;;8429820;28;20657;-65
2022/09/09 06:59:03;;;;;;;27.98;13.80;;;;;19.10;96115.00;;;;8430208;28;20651;-65
2022/09/09 07:03:08;;;;;;;19.17;11.88;;;;;19.50;96121.00;;;;8429191;28;20660;-65
2022/09/09 07:07:43;;;;;;;17.85;10.32;;;;;19.70;96124.00;;;;8429715;28;20653;-64
2022/09/09 07:11:48;;;;;;;13.25;8.88;;;;;19.60;96129.00;;;;8429437;28;20211;-64
2022/09/09 07:15:51;;;;;;;12.00;9.75;;;;;19.50;96129.00;;;;8429797;28;20219;-64
2022/09/09 07:20:30;;;;;;;12.82;9.38;;;;;19.30;96131.00;;;;8428091;28;20652;-66
2022/09/09 07:24:33;;;;;;;13.23;9.70;;;;;18.90;96126.00;;;;8429125;28;20233;-65
2022/09/09 07:28:36;;;;;;;14.98;9.88;;;;;18.60;96127.00;;;;8428974;28;20219;-65
2022/09/09 07:33:11;;;;;;;16.52;9.77;;;;;18.20;96142.00;;;;8428550;28;20223;-65
2022/09/09 07:37:15;;;;;;;16.50;9.20;;;;;17.80;96142.00;;;;8428423;28;20269;-62
2022/09/09 07:41:21;;;;;;;20.23;10.18;;;;;17.60;96142.00;;;;8427826;28;20215;-62
2022/09/09 07:45:24;;;;;;;16.38;10.10;;;;;17.40;96149.00;;;;8427857;28;20222;-63
2022/09/09 07:49:27;;;;;;;21.67;10.55;;;;;17.30;96159.00;;;;8427724;28;20219;-63
2022/09/09 07:53:38;;;;;;;15.50;10.05;;;;;17.10;96166.00;;;;8428567;28;20215;-64
2022/09/09 07:57:41;;;;;;;20.60;10.70;;;;;17.10;96168.00;;;;8428164;28;20215;-64
2022/09/09 08:01:46;;;;;;;16.90;10.13;;;;;17.10;96161.00;;;;8428011;28;21974;-64
2022/09/09 08:06:20;;;;;;;13.30;8.93;;;;;17.10;96175.00;;;;8427720;28;20218;-65
2022/09/09 08:10:24;;;;;;;14.52;9.80;;;;;17.10;96178.00;;;;8427844;28;20223;-65
2022/09/09 08:14:28;;;;;;;12.10;8.45;;;;;17.20;96180.00;;;;8427483;28;20211;-65
2022/09/09 08:18:31;;;;;;;16.65;7.75;;;;;17.30;96166.00;;;;8426815;28;20219;-66
2022/09/09 08:22:34;;;;;;;13.93;7.50;;;;;17.50;96174.00;;;;8427417;28;20211;-66
2022/09/09 08:26:41;;;;;;;10.80;6.60;;;;;17.60;96178.00;;;;8427553;28;20675;-65
2022/09/09 08:30:44;;;;;;;6.88;5.28;;;;;18.30;96182.00;;;;8427812;28;20668;-65
2022/09/09 08:35:20;;;;;;;8.02;4.88;;;;;19.00;96165.00;;;;8427319;28;20243;-65
2022/09/09 08:39:24;;;;;;;8.30;4.32;;;;;18.70;96182.00;;;;8427060;28;20227;-65
2022/09/09 08:43:29;;;;;;;4.40;3.67;;;;;18.60;96183.00;;;;8433119;28;20656;-66
2022/09/09 08:47:40;;;;;;;4.32;3.75;;;;;18.80;96190.00;;;;8433728;28;20214;-66
2022/09/09 08:51:43;;;;;;;5.72;4.18;;;;;19.20;96184.00;;;;8433781;28;20560;-66
2022/09/09 08:56:23;;;;;;;5.72;3.53;;;;;19.50;96177.00;;;;8433921;28;20231;-65
2022/09/09 09:00:34;;;;;;;4.60;3.00;;;;;20.10;96198.00;;;;8433580;28;20270;-66
2022/09/09 09:04:52;;;;;;;6.22;3.08;;;;;20.40;96187.00;;;;8433441;28;20238;-66
2022/09/09 09:09:22;;;;;;;5.53;3.20;;;;;20.50;96193.00;;;;8433749;28;20576;-66
2022/09/09 09:13:36;;;;;;;4.60;2.95;;;;;20.60;96191.00;;;;8433405;28;20218;-65
2022/09/09 09:17:46;;;;;;;6.78;2.90;;;;;20.70;96200.00;;;;8433282;28;20220;-66
2022/09/09 09:22:28;;;;;;;6.35;2.80;;;;;21.00;96192.00;;;;8432723;28;20636;-65
2022/09/09 09:26:34;;;;;;;5.75;2.20;;;;;21.90;96192.00;;;;8432459;28;20222;-65
2022/09/09 09:31:10;;;;;;;4.82;2.22;;;;;22.40;96186.00;;;;8433184;28;20231;-66
2022/09/09 09:35:15;;;;;;;2.33;2.10;;;;;22.30;96188.00;;;;8432639;28;20612;-66
2022/09/09 09:39:25;;;;;;;4.88;2.30;;;;;22.30;96181.00;;;;8432251;28;22068;-68
2022/09/09 09:43:55;;;;;;;6.72;2.63;;;;;22.40;96183.00;;;;8432572;28;21149;-68
2022/09/09 09:48:04;;;;;;;3.58;2.10;;;;;22.60;96172.00;;;;8431779;28;20302;-67
2022/09/09 09:52:37;;;;;;;2.42;1.98;;;;;22.80;96174.00;;;;8430845;28;20596;-67
2022/09/09 09:56:42;;;;;;;2.60;2.10;;;;;22.80;96174.00;;;;8432008;28;20223;-67
2022/09/09 10:00:50;;;;;;;3.08;1.70;;;;;22.70;96179.00;;;;8432085;28;20251;-68
2022/09/09 10:05:16;;;;;;;6.32;2.10;;;;;22.80;96181.00;;;;8431827;28;20564;-67
2022/09/09 10:09:24;;;;;;;2.25;1.95;;;;;22.90;96176.00;;;;8432081;28;20219;-67
2022/09/09 10:13:36;;;;;;;4.20;2.53;;;;;23.20;96171.00;;;;8431637;28;20230;-67
2022/09/09 10:17:49;;;;;;;5.00;1.60;;;;;23.60;96176.00;;;;8431342;28;20242;-67
2022/09/09 10:22:26;;;;;;;2.28;1.10;;;;;23.60;96174.00;;;;8431242;28;20659;-67
2022/09/09 10:26:39;;;;;;;1.92;1.10;;;;;23.80;96171.00;;;;8430492;28;20223;-67
2022/09/09 10:30:57;;;;;;;1.23;1.15;;;;;24.10;96173.00;;;;8430201;28;20220;-67
2022/09/09 10:35:27;;;;;;;0.98;0.90;;;;;25.10;96173.00;;;;8430712;28;20219;-66
2022/09/09 10:39:37;;;;;;;2.10;1.00;;;;;25.80;96163.00;;;;8430021;28;20227;-67
2022/09/09 10:44:04;;;;;;;7.20;1.35;;;;;26.00;96162.00;;;;8430435;28;20242;-66
2022/09/09 10:48:31;;;;;;;1.25;1.13;;;;;26.30;96168.00;;;;8429491;28;20218;-67
2022/09/09 10:52:42;;;;;;;1.30;1.20;;;;;26.60;96161.00;;;;8430241;28;20207;-67
2022/09/09 10:56:56;;;;;;;1.45;1.27;;;;;26.50;96156.00;;;;8430614;28;20230;-67
2022/09/09 11:01:07;;;;;;;1.40;1.30;;;;;26.60;96157.00;;;;8429752;28;20227;-67
2022/09/09 11:05:19;;;;;;;1.17;1.13;;;;;26.80;96158.00;;;;8429325;28;20219;-67
2022/09/09 11:09:26;;;;;;;2.63;1.30;;;;;27.00;96163.00;;;;8429693;28;20602;-67
2022/09/09 11:13:36;;;;;;;1.33;0.90;;;;;27.20;96159.00;;;;8430266;28;20215;-67
2022/09/09 11:17:44;;;;;;;4.55;1.15;;;;;27.40;96160.00;;;;8428738;28;20222;-67
2022/09/09 11:22:26;;;;;;;2.47;1.10;;;;;27.10;96157.00;;;;8429541;28;20268;-67
2022/09/09 11:26:33;;;;;;;1.33;1.10;;;;;26.80;96145.00;;;;8429090;28;20313;-67
2022/09/09 11:30:53;;;;;;;1.80;1.00;;;;;27.20;96149.00;;;;8429399;28;20230;-67
2022/09/09 11:35:22;;;;;;;1.55;1.25;;;;;27.40;96149.00;;;;8428293;28;20664;-66
2022/09/09 11:39:54;;;;;;;1.55;0.98;;;;;27.40;96148.00;;;;8428385;28;20227;-67
2022/09/09 11:43:58;;;;;;;1.33;1.23;;;;;27.50;96154.00;;;;8428108;28;20299;-67
2022/09/09 11:48:03;;;;;;;1.23;1.10;;;;;27.40;96154.00;;;;8427857;28;20211;-67
2022/09/09 11:52:12;;;;;;;1.38;1.00;;;;;27.10;96154.00;;;;8427421;28;20565;-68
2022/09/09 11:56:27;;;;;;;1.23;1.13;;;;;27.00;96147.00;;;;8428168;28;20211;-67
2022/09/09 12:00:34;;;;;;;1.52;1.20;;;;;26.90;96145.00;;;;8428627;28;20219;-66
2022/09/09 12:05:08;;;;;;;2.60;1.40;;;;;26.70;96142.00;;;;8428248;28;20215;-67
2022/09/09 12:09:19;;;;;;;0.88;0.88;;;;;26.60;96142.00;;;;8427474;28;20245;-67
2022/09/09 12:13:26;;;;;;;1.15;1.10;;;;;26.60;96140.00;;;;8428181;28;20211;-67
2022/09/09 12:17:31;;;;;;;1.20;1.10;;;;;26.40;96138.00;;;;8426550;28;20219;-67
2022/09/09 12:22:09;;;;;;;1.25;1.10;;;;;26.30;96140.00;;;;8427453;28;20553;-67
2022/09/09 12:26:32;;;;;;;1.20;1.20;;;;;26.20;96144.00;;;;8428215;28;20215;-66
2022/09/09 12:30:49;;;;;;;1.33;1.20;;;;;26.30;96147.00;;;;8427518;28;20267;-66
2022/09/09 12:34:56;;;;;;;1.45;1.35;;;;;26.40;96138.00;;;;8428029;28;20306;-67
2022/09/09 12:39:15;;;;;;;1.90;1.50;;;;;26.30;96135.00;;;;8427263;28;20245;-66
2022/09/09 12:43:21;;;;;;;1.50;1.40;;;;;26.50;96130.00;;;;8427380;28;20215;-65
2022/09/09 12:47:58;;;;;;;2.10;1.30;;;;;26.20;96120.00;;;;8427074;28;20280;-65
2022/09/09 12:52:05;;;;;;;2.60;1.50;;;;;26.20;96118.00;;;;8427357;28;20231;-65
2022/09/09 12:56:19;;;;;;;2.65;1.10;;;;;26.30;96106.00;;;;8426954;28;20253;-65
2022/09/09 13:00:50;;;;;;;2.30;1.13;;;;;26.10;96113.00;;;;8426824;28;20235;-66
2022/09/09 13:04:55;;;;;;;2.47;1.30;;;;;25.90;96104.00;;;;8426770;28;20655;-65
2022/09/09 13:09:00;;;;;;;2.13;1.20;;;;;25.80;96094.00;;;;8426652;28;20215;-65
2022/09/09 13:13:15;;;;;;;2.28;1.10;;;;;25.80;96080.00;;;;8427359;28;20219;-65
2022/09/09 13:17:22;;;;;;;1.00;0.95;;;;;26.00;96074.00;;;;8426535;28;20212;-65
2022/09/09 13:21:34;;;;;;;1.67;1.10;;;;;26.20;96069.00;;;;8427266;28;20220;-66
2022/09/09 13:26:04;;;;;;;4.10;1.20;;;;;25.90;96064.00;;;;8427324;28;20238;-66
2022/09/09 13:30:23;;;;;;;3.38;1.20;;;;;25.70;96066.00;;;;8433140;28;20671;-66
2022/09/09 13:34:29;;;;;;;1.27;1.10;;;;;25.90;96063.00;;;;8432457;28;20246;-66
2022/09/09 13:38:38;;;;;;;1.70;1.00;;;;;25.90;96060.00;;;;8432367;28;20216;-66
2022/09/09 13:42:42;;;;;;;1.52;1.20;;;;;26.10;96061.00;;;;8432022;28;20215;-66
2022/09/09 13:46:46;;;;;;;2.92;1.60;;;;;25.90;96064.00;;;;8431887;28;20227;-66
2022/09/09 13:50:56;;;;;;;4.57;1.40;;;;;26.20;96065.00;;;;8432258;28;20254;-66
2022/09/09 13:55:27;;;;;;;1.60;1.50;;;;;26.50;96066.00;;;;8431849;28;20235;-66
2022/09/09 13:59:30;;;;;;;2.00;1.80;;;;;26.80;96059.00;;;;8431387;28;20628;-66
2022/09/09 14:03:53;;;;;;;1.50;1.40;;;;;26.60;96045.00;;;;8431513;28;20233;-67
2022/09/09 14:07:56;;;;;;;2.67;1.45;;;;;26.50;96053.00;;;;8430747;28;20648;-67
2022/09/09 14:12:00;;;;;;;5.28;1.45;;;;;26.80;96061.00;;;;8431782;28;20226;-67
2022/09/09 14:16:03;;;;;;;2.63;1.55;;;;;27.10;96052.00;;;;8431136;28;20219;-67
2022/09/09 14:20:09;;;;;;;2.05;1.40;;;;;26.90;96053.00;;;;8431066;28;20272;-67
2022/09/09 14:24:42;;;;;;;3.65;1.60;;;;;27.30;96043.00;;;;8430743;28;20265;-67
2022/09/09 14:28:47;;;;;;;5.60;1.35;;;;;27.10;96044.00;;;;8430104;28;20226;-68
2022/09/09 14:32:58;;;;;;;3.80;1.40;;;;;27.10;96044.00;;;;8430642;28;20281;-67
2022/09/09 14:37:35;;;;;;;3.90;1.50;;;;;27.30;96040.00;;;;8429660;28;20560;-67
2022/09/09 14:41:38;;;;;;;1.48;1.30;;;;;27.30;96047.00;;;;8430129;28;20653;-67
2022/09/09 14:45:43;;;;;;;2.58;1.38;;;;;27.00;96038.00;;;;8429798;28;20210;-67
2022/09/09 14:49:49;;;;;;;3.30;1.95;;;;;26.40;96053.00;;;;8430176;28;20230;-67
2022/09/09 14:54:21;;;;;;;3.30;1.65;;;;;25.90;96056.00;;;;8429536;28;20295;-67
2022/09/09 14:58:25;;;;;;;1.50;1.40;;;;;25.90;96055.00;;;;8429565;28;20222;-66
2022/09/09 15:02:35;;;;;;;2.85;1.60;;;;;26.00;96050.00;;;;8429265;28;20227;-67
2022/09/09 15:06:39;;;;;;;1.35;1.30;;;;;25.60;96049.00;;;;8429379;28;20223;-67
2022/09/09 15:10:44;;;;;;;2.90;1.40;;;;;25.20;96041.00;;;;8429034;28;20222;-67
2022/09/09 15:14:48;;;;;;;6.05;1.60;;;;;24.80;96051.00;;;;8429771;28;20226;-67
2022/09/09 15:19:24;;;;;;;3.13;1.63;;;;;24.50;96050.00;;;;8429140;28;20536;-67
2022/09/09 15:23:29;;;;;;;3.90;1.85;;;;;24.40;96043.00;;;;8428255;28;20215;-67
2022/09/09 15:27:34;;;;;;;5.53;1.83;;;;;24.20;96043.00;;;;8428618;28;20357;-68
2022/09/09 15:32:08;;;;;;;2.90;1.70;;;;;24.00;96034.00;;;;8428588;28;20234;-67
2022/09/09 15:36:15;;;;;;;1.52;1.42;;;;;23.80;96035.00;;;;8428516;28;20211;-67
2022/09/09 15:40:20;;;;;;;4.13;1.80;;;;;23.70;96036.00;;;;8427634;28;20264;-67
2022/09/09 15:44:25;;;;;;;3.58;1.48;;;;;23.70;96032.00;;;;8428100;28;20223;-68
2022/09/09 15:48:33;;;;;;;6.40;1.60;;;;;23.70;96023.00;;;;8428587;28;20219;-67
2022/09/09 15:52:36;;;;;;;3.80;1.40;;;;;23.60;96021.00;;;;8427574;28;20546;-67
2022/09/09 15:56:41;;;;;;;2.50;1.58;;;;;23.50;96036.00;;;;8428256;28;20211;-67
2022/09/09 16:01:16;;;;;;;2.38;1.45;;;;;23.30;96059.00;;;;8427594;28;20230;-67
2022/09/09 16:05:20;;;;;;;2.78;1.60;;;;;23.10;96060.00;;;;8427223;28;20227;-67
2022/09/09 16:09:23;;;;;;;2.80;1.52;;;;;22.90;96040.00;;;;8428062;28;20220;-68
2022/09/09 16:13:28;;;;;;;3.53;1.65;;;;;22.70;96042.00;;;;8427536;28;20227;-68
2022/09/09 16:18:01;;;;;;;3.75;1.30;;;;;22.50;96048.00;;;;8427963;28;20219;-68
2022/09/09 16:22:06;;;;;;;2.72;1.33;;;;;22.30;96066.00;;;;8427793;28;20230;-68
2022/09/09 16:26:12;;;;;;;4.85;1.23;;;;;22.10;96101.00;;;;8427456;28;20219;-68
2022/09/09 16:30:16;;;;;;;2.28;1.50;;;;;21.60;96109.00;;;;8427082;28;20211;-68
2022/09/09 16:34:20;;;;;;;5.30;1.15;;;;;21.00;96130.00;;;;8427371;28;20211;-68
2022/09/09 16:38:24;;;;;;;2.33;1.33;;;;;20.20;96134.00;;;;8427862;28;20657;-67
2022/09/09 16:42:27;;;;;;;4.40;1.10;;;;;19.30;96121.00;;;;8426847;28;20223;-67
2022/09/09 16:47:05;;;;;;;5.80;1.50;;;;;18.40;96104.00;;;;8427723;28;20219;-67
2022/09/09 16:51:14;;;;;;;2.30;1.30;;;;;17.80;96082.00;;;;8427189;28;20219;-66
2022/09/09 16:55:17;;;;;;;3.08;1.35;;;;;17.50;96069.00;;;;8427332;28;20218;-66
2022/09/09 16:59:55;;;;;;;1.50;1.00;;;;;17.40;96053.00;;;;8427324;28;20219;-66
2022/09/09 17:04:01;;;;;;;1.58;0.98;;;;;17.40;96057.00;;;;8432131;28;20235;-66
2022/09/09 17:08:05;;;;;;;1.98;1.10;;;;;17.40;96064.00;;;;8433334;28;20227;-66
2022/09/09 17:12:11;;;;;;;2.38;1.30;;;;;17.40;96053.00;;;;8433200;28;20230;-66
2022/09/09 17:16:43;;;;;;;2.53;1.10;;;;;17.30;96064.00;;;;8432474;28;20223;-66
2022/09/09 17:20:47;;;;;;;2.75;1.30;;;;;17.30;96075.00;;;;8432581;28;20219;-66
2022/09/09 17:24:50;;;;;;;2.55;1.20;;;;;17.20;96074.00;;;;8431233;28;20231;-66
2022/09/09 17:29:17;;;;;;;1.15;0.90;;;;;17.10;96080.00;;;;8432838;28;20223;-66
2022/09/09 17:33:20;;;;;;;1.77;1.20;;;;;17.10;96093.00;;;;8431192;28;20240;-66
2022/09/09 17:37:25;;;;;;;2.85;1.10;;;;;17.00;96095.00;;;;8432326;28;20259;-67
2022/09/09 17:41:30;;;;;;;1.42;1.33;;;;;16.90;96105.00;;;;8432081;28;20223;-66
2022/09/09 17:45:33;;;;;;;4.80;1.30;;;;;16.80;96104.00;;;;8432365;28;20226;-67
2022/09/09 17:49:36;;;;;;;2.33;1.70;;;;;16.60;96106.00;;;;8431827;28;20227;-67
2022/09/09 17:53:42;;;;;;;3.67;1.23;;;;;16.50;96107.00;;;;8431326;28;20241;-66
2022/09/09 17:58:15;;;;;;;2.92;1.40;;;;;16.60;96111.00;;;;8431241;28;20230;-66
2022/09/09 18:02:18;;;;;;;2.55;1.27;;;;;16.80;96112.00;;;;8431201;28;20238;-67
2022/09/09 18:06:26;;;;;;;4.30;1.20;;;;;17.00;96116.00;;;;8431670;28;20238;-67
2022/09/09 18:10:58;;;;;;;3.47;1.45;;;;;17.00;96121.00;;;;8431130;28;20321;-67
2022/09/09 18:15:01;;;;;;;3.60;1.40;;;;;16.90;96133.00;;;;8430392;28;20706;-68
2022/09/09 18:19:12;;;;;;;2.58;1.50;;;;;16.50;96140.00;;;;8430891;28;20228;-67
2022/09/09 18:23:15;;;;;;;3.75;1.50;;;;;16.20;96151.00;;;;8430917;28;20242;-67
2022/09/09 18:27:53;;;;;;;1.27;1.17;;;;;16.20;96147.00;;;;8430471;28;20252;-67
2022/09/09 18:31:57;;;;;;;2.75;1.63;;;;;16.20;96161.00;;;;8430741;28;20223;-68
2022/09/09 18:36:05;;;;;;;2.30;1.30;;;;;16.00;96165.00;;;;8430090;28;20235;-67
2022/09/09 18:40:20;;;;;;;1.80;1.30;;;;;16.00;96170.00;;;;8431078;28;20264;-67
2022/09/09 18:44:26;;;;;;;1.45;1.35;;;;;16.00;96173.00;;;;8429835;28;20568;-67
2022/09/09 18:48:29;;;;;;;5.95;1.77;;;;;15.90;96181.00;;;;8430402;28;20221;-67
2022/09/09 18:52:32;;;;;;;4.05;1.52;;;;;15.90;96184.00;;;;8429708;28;20215;-67
2022/09/09 18:56:35;;;;;;;4.28;1.55;;;;;15.90;96180.00;;;;8430139;28;20226;-67
2022/09/09 19:00:40;;;;;;;2.17;1.40;;;;;15.90;96180.00;;;;8429105;28;20230;-67
2022/09/09 19:04:43;;;;;;;2.70;1.48;;;;;15.70;96183.00;;;;8429074;28;20243;-67
2022/09/09 19:09:19;;;;;;;6.13;1.45;;;;;15.60;96182.00;;;;8429259;28;20320;-67
2022/09/09 19:13:23;;;;;;;3.00;1.60;;;;;15.70;96196.00;;;;8428618;28;20678;-67
2022/09/09 19:17:29;;;;;;;7.00;1.70;;;;;15.60;96186.00;;;;8429326;28;20218;-67
2022/09/09 19:22:10;;;;;;;1.60;1.48;;;;;15.60;96198.00;;;;8429124;28;20230;-66
2022/09/09 19:26:15;;;;;;;3.70;1.60;;;;;15.50;96183.00;;;;8428127;28;20222;-66
2022/09/09 19:30:19;;;;;;;5.75;1.85;;;;;15.40;96186.00;;;;8428382;28;20252;-66
2022/09/09 19:34:23;;;;;;;4.53;2.10;;;;;15.40;96178.00;;;;8428712;28;20557;-66
2022/09/09 19:38:27;;;;;;;3.97;2.10;;;;;15.40;96177.00;;;;8427838;28;20272;-66
2022/09/09 19:42:30;;;;;;;3.80;2.53;;;;;15.30;96175.00;;;;8429065;28;20219;-67
2022/09/09 19:46:35;;;;;;;3.85;2.15;;;;;15.30;96181.00;;;;8428065;28;20219;-67
2022/09/09 19:51:12;;;;;;;2.17;1.92;;;;;15.20;96193.00;;;;8428205;28;20218;-67
2022/09/09 19:55:15;;;;;;;2.58;2.17;;;;;15.20;96194.00;;;;8428311;28;20215;-68
2022/09/09 19:59:18;;;;;;;3.80;2.00;;;;;15.20;96203.00;;;;8428060;28;20230;-68
2022/09/09 20:03:21;;;;;;;2.60;2.20;;;;;15.00;96192.00;;;;8427385;28;20219;-68
2022/09/09 20:07:57;;;;;;;6.50;2.40;;;;;15.00;96192.00;;;;8427394;28;20687;-68
2022/09/09 20:12:00;;;;;;;2.67;2.22;;;;;15.00;96187.00;;;;8427136;28;20242;-68
2022/09/09 20:16:06;;;;;;;2.08;1.98;;;;;15.00;96187.00;;;;8428233;28;20215;-67
2022/09/09 20:20:11;;;;;;;5.28;1.90;;;;;15.00;96192.00;;;;8427337;28;20572;-67
2022/09/09 20:24:17;;;;;;;3.15;2.10;;;;;15.10;96182.00;;;;8427846;28;21932;-68
2022/09/09 20:28:20;;;;;;;3.08;2.08;;;;;15.20;96181.00;;;;8427146;28;20215;-67
2022/09/09 20:32:23;;;;;;;4.63;2.13;;;;;15.20;96173.00;;;;8427107;28;20222;-67
2022/09/09 20:37:01;;;;;;;5.13;2.38;;;;;15.30;96175.00;;;;8428385;28;20301;-68
2022/09/09 20:41:06;;;;;;;5.95;2.30;;;;;15.40;96182.00;;;;8434252;28;20261;-67
2022/09/09 20:45:14;;;;;;;3.03;2.60;;;;;15.40;96188.00;;;;8433677;28;20226;-67
2022/09/09 20:49:19;;;;;;;5.75;2.30;;;;;15.50;96194.00;;;;8434324;28;20227;-67